EGVA

RAF Fairford Airport

Fairford, United Kingdom
METAR EGVA 182146Z AUTO 22007KT 9999 BKN009 OVC014 18/16 A3013 RMK AO2 CIG 009V014 BKN V SCT SLP205 $
Observed Flight Rules
Aug-18 @ 21:46 UTC (9 minutes ago) Instrument Flight Rules
Wind Visibility Clouds
220° at 7 knots 10,000+ meters
  • Broken at 900' AGL
  • Overcast at 1,400' AGL
Temperatures Readings
Current 18°C / 64°F
Dewpoint 16°C / 61°F
Humidity 88%
Altimeter 30.13" Hg
Pressure 1020.5 hPa
Elevation 87
METAR EGVA 182146Z AUTO 22007KT 9999 BKN009 OVC014 18/16 A3013 RMK AO2 CIG 009V014 BKN V SCT SLP205 $
Observed Flight Rules
Aug-18 @ 21:46 UTC
(9 minutes ago)
IFR
Wind Visibility
220° at 7 knots 10,000+ meters
Clouds
  • Broken at 900' AGL
  • Overcast at 1,400' AGL
Temperature Dewpoint
18°C / 64°F 16°C / 61°F
Humidity Altimeter Pressure
88% 30.13" Hg 1020.5 hPa